createdAt,value
2018-11-02T00:01:07.000Z,18.8
2018-11-02T00:11:07.000Z,18.8
2018-11-02T00:21:07.000Z,18.8
2018-11-02T00:31:07.000Z,18.8
2018-11-02T00:41:07.000Z,18.8
2018-11-02T00:51:07.000Z,18.8
2018-11-02T01:11:07.000Z,18.7
2018-11-02T01:21:07.000Z,18.6
2018-11-02T01:31:07.000Z,18.7
2018-11-02T01:41:07.000Z,18.7
2018-11-02T01:51:07.000Z,18.6
2018-11-02T02:01:07.000Z,18.6
2018-11-02T02:11:07.000Z,18.5
2018-11-02T02:21:07.000Z,18.4
2018-11-02T02:31:07.000Z,18.5
2018-11-02T02:41:08.000Z,18.6
2018-11-02T02:51:07.000Z,18.6
2018-11-02T03:01:07.000Z,18.5
2018-11-02T03:11:07.000Z,18.5
2018-11-02T03:21:08.000Z,18.5
2018-11-02T03:31:08.000Z,18.6
2018-11-02T03:41:10.000Z,18.5
2018-11-02T03:51:08.000Z,18.5
2018-11-02T04:01:08.000Z,18.6
2018-11-02T04:11:08.000Z,18.6
2018-11-02T04:21:08.000Z,18.6
2018-11-02T04:31:08.000Z,18.6
2018-11-02T04:41:08.000Z,18.5
2018-11-02T04:51:08.000Z,18.4
2018-11-02T05:01:08.000Z,18.4
2018-11-02T05:21:08.000Z,18.4
2018-11-02T05:31:08.000Z,18.2
2018-11-02T05:41:08.000Z,18.1
2018-11-02T05:51:08.000Z,18.1
2018-11-02T06:01:08.000Z,18.1
2018-11-02T06:11:08.000Z,18.1
2018-11-02T06:21:08.000Z,18.1
2018-11-02T06:31:08.000Z,18
2018-11-02T06:41:08.000Z,18
2018-11-02T06:51:08.000Z,18
2018-11-02T07:01:08.000Z,18
2018-11-02T07:11:08.000Z,17.9
2018-11-02T07:21:08.000Z,18
2018-11-02T07:31:08.000Z,18.8
2018-11-02T07:41:08.000Z,19.4
2018-11-02T07:51:08.000Z,19.7
2018-11-02T08:01:08.000Z,19.8
2018-11-02T08:11:08.000Z,19.9
2018-11-02T08:21:08.000Z,20
2018-11-02T08:31:08.000Z,20.1
2018-11-02T08:41:08.000Z,20.1
2018-11-02T08:51:08.000Z,20.1
2018-11-02T09:01:08.000Z,20.2
2018-11-02T09:11:08.000Z,20.2
2018-11-02T09:21:08.000Z,20.3
2018-11-02T09:31:08.000Z,20.3
2018-11-02T09:41:08.000Z,20.3
2018-11-02T09:51:09.000Z,20.3
2018-11-02T10:01:08.000Z,20.4
2018-11-02T10:11:08.000Z,20.4
2018-11-02T10:21:09.000Z,20.4
2018-11-02T10:31:09.000Z,20.4
2018-11-02T10:41:09.000Z,20.4
2018-11-02T10:51:09.000Z,20.5
2018-11-02T11:01:09.000Z,20.5
2018-11-02T11:11:09.000Z,20.6
2018-11-02T11:21:09.000Z,20.5
2018-11-02T11:31:09.000Z,20.6
2018-11-02T11:41:09.000Z,20.6
2018-11-02T11:51:09.000Z,20.6
2018-11-02T12:01:09.000Z,20.6
2018-11-02T12:11:09.000Z,20.6
2018-11-02T12:21:09.000Z,20.6
2018-11-02T12:31:09.000Z,20.7
2018-11-02T12:41:09.000Z,20.7
2018-11-02T12:51:09.000Z,20.8
2018-11-02T13:01:09.000Z,20.8
2018-11-02T13:11:09.000Z,20.8
2018-11-02T13:21:09.000Z,20.8
2018-11-02T13:31:09.000Z,20.8
2018-11-02T13:41:09.000Z,20.8
2018-11-02T13:51:09.000Z,20.7
2018-11-02T14:01:09.000Z,20.9
2018-11-02T14:11:09.000Z,21
2018-11-02T14:21:09.000Z,21.1
2018-11-02T14:31:09.000Z,21
2018-11-02T14:41:09.000Z,21
2018-11-02T14:51:09.000Z,21
2018-11-02T15:01:09.000Z,21
2018-11-02T15:11:09.000Z,21
2018-11-02T15:21:09.000Z,20.9
2018-11-02T15:31:09.000Z,20.9
2018-11-02T15:41:09.000Z,20.9
2018-11-02T15:51:09.000Z,20.9
2018-11-02T16:01:09.000Z,20.9
2018-11-02T16:11:09.000Z,20.9
2018-11-02T16:21:09.000Z,20.9
2018-11-02T16:31:09.000Z,20.9
2018-11-02T16:41:09.000Z,20.9
2018-11-02T16:51:09.000Z,20.9
2018-11-02T17:01:09.000Z,20.9
2018-11-02T17:11:10.000Z,20.9
2018-11-02T17:31:10.000Z,20.8
2018-11-02T17:41:10.000Z,20.8
2018-11-02T17:51:10.000Z,20.8
2018-11-02T18:01:10.000Z,20.8
2018-11-02T18:11:10.000Z,20.8
2018-11-02T18:21:10.000Z,20.8
2018-11-02T18:31:10.000Z,20.8
2018-11-02T18:41:10.000Z,20.8
2018-11-02T18:51:10.000Z,20.8
2018-11-02T19:01:10.000Z,20.8
2018-11-02T19:11:10.000Z,20.8
2018-11-02T19:21:10.000Z,20.8
2018-11-02T19:31:10.000Z,20.8
2018-11-02T19:41:10.000Z,20.8
2018-11-02T19:51:10.000Z,20.8
2018-11-02T20:01:10.000Z,20.8
2018-11-02T20:11:10.000Z,20.8
2018-11-02T20:21:10.000Z,20.8
2018-11-02T20:31:10.000Z,20.8
2018-11-02T20:41:10.000Z,20.8
2018-11-02T20:51:10.000Z,20.8
2018-11-02T21:01:11.000Z,20.8
2018-11-02T21:11:10.000Z,20.8
2018-11-02T21:21:10.000Z,20.8
2018-11-02T21:31:10.000Z,20.8
2018-11-02T21:41:10.000Z,20.8
2018-11-02T21:51:10.000Z,20.8
2018-11-02T22:01:10.000Z,20.7
2018-11-02T22:11:10.000Z,20.7
2018-11-02T22:21:10.000Z,20.7
2018-11-02T22:31:10.000Z,20.7
2018-11-02T22:41:10.000Z,20.7
2018-11-02T22:51:10.000Z,20.7
2018-11-02T23:01:10.000Z,20.7
2018-11-02T23:11:10.000Z,20.8
2018-11-02T23:21:10.000Z,20.7
2018-11-02T23:31:10.000Z,20.7
2018-11-02T23:41:10.000Z,20.7
2018-11-02T23:51:10.000Z,20.7
